Time;durP1;ratioP1;P1;durP2;ratioP2;P2;SDS_P1;SDS_P2;PMS_P1;PMS_P2;Temp;Humidity;BMP_temperature;BMP_pressure;BME280_temperature;BME280_humidity;BME280_pressure;Samples;Min_cycle;Max_cycle;Signal;HPM_P1;HPM_P2
2023/04/07 00:02:16;;;;;;;11.83;6.73;;;9.60;71.10;;;;;;5074525;28;20217;-72
2023/04/07 00:04:44;;;;;;;17.10;8.00;;;9.60;71.20;;;;;;5070242;28;20187;-73
2023/04/07 00:07:13;;;;;;;12.23;6.77;;;9.50;71.30;;;;;;5067095;28;20573;-72
2023/04/07 00:09:42;;;;;;;11.67;6.60;;;9.50;71.40;;;;;;5068930;28;20187;-72
2023/04/07 00:12:11;;;;;;;11.83;6.60;;;9.50;71.40;;;;;;5068509;28;20207;-72
2023/04/07 00:14:39;;;;;;;12.87;6.53;;;9.50;71.50;;;;;;5066920;28;20194;-72
2023/04/07 00:17:08;;;;;;;11.93;7.13;;;9.40;71.40;;;;;;5066916;28;20253;-73
2023/04/07 00:19:37;;;;;;;13.47;7.43;;;9.40;71.60;;;;;;5072170;28;20240;-72
2023/04/07 00:22:05;;;;;;;12.93;6.70;;;9.40;71.60;;;;;;5071374;28;20221;-72
2023/04/07 00:24:33;;;;;;;12.83;7.13;;;9.30;71.60;;;;;;5074026;28;20194;-73
2023/04/07 00:27:03;;;;;;;12.77;7.20;;;9.30;71.80;;;;;;5068274;28;20198;-75
2023/04/07 00:29:31;;;;;;;10.40;6.70;;;9.30;71.90;;;;;;5073073;28;20187;-72
2023/04/07 00:32:00;;;;;;;12.17;7.00;;;9.30;72.10;;;;;;5065908;28;20836;-72
2023/04/07 00:34:28;;;;;;;10.30;6.20;;;9.20;72.00;;;;;;5066152;28;20186;-72
2023/04/07 00:36:57;;;;;;;11.10;7.37;;;9.20;72.10;;;;;;5069293;28;20602;-72
2023/04/07 00:39:26;;;;;;;9.60;6.20;;;9.20;72.10;;;;;;5070871;28;20190;-74
2023/04/07 00:41:55;;;;;;;12.27;7.33;;;9.20;72.20;;;;;;5070236;28;20195;-72
2023/04/07 00:44:25;;;;;;;11.97;6.90;;;9.20;72.20;;;;;;5068196;28;20190;-72
2023/04/07 00:46:53;;;;;;;10.73;7.07;;;9.10;72.20;;;;;;5071018;28;20873;-73
2023/04/07 00:49:21;;;;;;;11.53;6.50;;;9.10;71.90;;;;;;5066203;28;20199;-73
2023/04/07 00:51:50;;;;;;;14.70;7.77;;;9.10;72.40;;;;;;5072210;28;20305;-72
2023/04/07 00:54:19;;;;;;;16.33;8.20;;;9.10;72.70;;;;;;5069576;28;20598;-72
2023/04/07 00:56:48;;;;;;;15.37;8.07;;;9.00;72.50;;;;;;5076342;28;20198;-72
2023/04/07 00:59:16;;;;;;;17.13;6.90;;;9.00;72.80;;;;;;5076321;28;20592;-72
2023/04/07 01:01:53;;;;;;;13.53;6.97;;;8.90;72.60;;;;;;5071796;28;20183;-72
2023/04/07 01:04:27;;;;;;;12.43;6.50;;;8.90;72.70;;;;;;5075664;28;20915;-72
2023/04/07 01:07:01;;;;;;;11.17;6.33;;;8.90;73.60;;;;;;5070156;28;20598;-73
2023/04/07 01:09:38;;;;;;;16.70;7.43;;;8.80;72.90;;;;;;5066876;28;20202;-73
2023/04/07 01:12:15;;;;;;;17.53;7.23;;;8.80;72.90;;;;;;5076324;28;20194;-73
2023/04/07 01:14:50;;;;;;;14.57;7.00;;;8.80;73.10;;;;;;5072251;28;20709;-73
2023/04/07 01:17:23;;;;;;;10.83;6.67;;;8.70;73.30;;;;;;5079089;28;20185;-72
2023/04/07 01:19:58;;;;;;;13.33;7.50;;;8.70;73.30;;;;;;5076145;28;20201;-73
2023/04/07 01:22:32;;;;;;;13.20;6.97;;;8.70;73.40;;;;;;5072407;28;20235;-72
2023/04/07 01:25:35;;;;;;;20.90;8.00;;;8.70;74.40;;;;;;5076023;28;20189;-73
2023/04/07 01:28:26;;;;;;;12.27;7.57;;;8.70;73.70;;;;;;5066602;28;20206;-73
2023/04/07 01:30:58;;;;;;;12.57;7.00;;;8.60;73.80;;;;;;5061258;28;20195;-73
2023/04/07 01:33:30;;;;;;;12.37;7.03;;;8.60;73.90;;;;;;5071717;28;20228;-72
2023/04/07 01:36:01;;;;;;;13.03;6.97;;;8.60;74.20;;;;;;5072912;28;20331;-73
2023/04/07 01:38:30;;;;;;;13.00;7.07;;;8.60;74.30;;;;;;5072843;28;20189;-73
2023/04/07 01:40:59;;;;;;;10.37;6.87;;;8.60;74.50;;;;;;5070845;28;20599;-73
2023/04/07 01:43:28;;;;;;;12.27;7.13;;;8.60;74.50;;;;;;5077279;28;20185;-73
2023/04/07 01:45:58;;;;;;;13.27;7.43;;;8.60;74.60;;;;;;5069052;28;20535;-73
2023/04/07 01:48:27;;;;;;;12.90;6.67;;;8.60;74.80;;;;;;5072519;28;20194;-73
2023/04/07 01:50:56;;;;;;;15.90;6.87;;;8.60;75.00;;;;;;5069345;28;20193;-73
2023/04/07 01:53:25;;;;;;;18.40;7.13;;;8.60;75.10;;;;;;5069273;28;20244;-73
2023/04/07 01:55:55;;;;;;;13.07;7.10;;;8.60;75.10;;;;;;5065851;28;20191;-73
2023/04/07 01:58:24;;;;;;;14.27;7.13;;;8.50;75.20;;;;;;5073727;28;20205;-73
2023/04/07 02:00:52;;;;;;;14.53;7.13;;;8.50;75.40;;;;;;5067566;28;20654;-73
2023/04/07 02:03:28;;;;;;;11.03;7.10;;;8.50;75.50;;;;;;5067466;28;20648;-72
2023/04/07 02:06:00;;;;;;;14.07;7.77;;;8.60;75.70;;;;;;5067771;28;20189;-72
2023/04/07 02:08:30;;;;;;;14.10;7.50;;;8.60;75.80;;;;;;5070906;28;20190;-72
2023/04/07 02:11:02;;;;;;;14.97;7.40;;;8.60;75.90;;;;;;5063708;28;20202;-72
2023/04/07 02:13:31;;;;;;;11.97;7.50;;;8.60;76.00;;;;;;5070908;28;20207;-72
2023/04/07 02:16:01;;;;;;;13.13;7.33;;;8.60;76.20;;;;;;5067549;28;20218;-73
2023/04/07 02:18:32;;;;;;;14.20;8.07;;;8.60;76.30;;;;;;5068797;28;20573;-72
2023/04/07 02:21:02;;;;;;;13.90;8.30;;;8.70;76.60;;;;;;5066796;28;20646;-72
2023/04/07 02:23:30;;;;;;;13.80;7.47;;;8.70;76.60;;;;;;5063427;28;20187;-72
2023/04/07 02:25:58;;;;;;;13.80;7.77;;;8.70;76.70;;;;;;5070591;28;20238;-73
2023/04/07 02:28:27;;;;;;;16.97;8.13;;;8.70;77.00;;;;;;5073361;28;20183;-72
2023/04/07 02:30:55;;;;;;;13.73;7.50;;;8.70;77.00;;;;;;5067816;28;20803;-72
2023/04/07 02:33:24;;;;;;;14.63;6.87;;;8.80;77.00;;;;;;5067793;28;20221;-72
2023/04/07 02:35:54;;;;;;;12.40;7.27;;;8.80;77.10;;;;;;5067072;28;20650;-73
2023/04/07 02:38:22;;;;;;;14.63;7.90;;;8.80;77.00;;;;;;5061072;28;20576;-72
2023/04/07 02:40:50;;;;;;;13.63;7.73;;;8.80;77.20;;;;;;5068423;28;20648;-73
2023/04/07 02:43:21;;;;;;;14.50;8.20;;;8.80;77.40;;;;;;5061483;28;20244;-72
2023/04/07 02:45:49;;;;;;;15.50;7.97;;;8.80;77.50;;;;;;5065163;28;20187;-72
2023/04/07 02:48:17;;;;;;;18.13;8.47;;;8.90;77.60;;;;;;5072111;28;20282;-72
2023/04/07 02:50:46;;;;;;;15.43;8.07;;;8.90;77.70;;;;;;5067866;28;20202;-72
2023/04/07 02:53:15;;;;;;;16.83;8.53;;;8.90;77.70;;;;;;5061121;28;21016;-72
2023/04/07 02:55:44;;;;;;;13.20;8.43;;;9.00;77.90;;;;;;5076385;28;20193;-72
2023/04/07 02:58:12;;;;;;;17.07;8.53;;;9.00;77.90;;;;;;5069620;28;20611;-72
2023/04/07 03:00:40;;;;;;;15.73;8.90;;;9.00;78.00;;;;;;5069528;28;21216;-72
2023/04/07 03:03:09;;;;;;;12.50;7.23;;;9.00;77.90;;;;;;5074406;28;20662;-72
2023/04/07 03:05:37;;;;;;;15.90;7.87;;;9.00;78.20;;;;;;5068461;28;20303;-72
2023/04/07 03:08:06;;;;;;;17.43;7.53;;;9.00;78.20;;;;;;5072973;28;20244;-73
2023/04/07 03:10:36;;;;;;;17.13;7.97;;;9.10;78.30;;;;;;5075048;28;20248;-72
2023/04/07 03:13:04;;;;;;;17.63;8.37;;;9.10;78.40;;;;;;5080969;28;20781;-72
2023/04/07 03:15:33;;;;;;;17.97;9.17;;;9.10;78.50;;;;;;5069681;28;20218;-72
2023/04/07 03:18:01;;;;;;;14.43;8.00;;;9.10;78.60;;;;;;5073731;28;20198;-73
2023/04/07 03:20:29;;;;;;;16.03;8.43;;;9.10;78.60;;;;;;5070732;28;20194;-72
2023/04/07 03:22:58;;;;;;;16.23;9.00;;;9.10;78.70;;;;;;5070640;28;20724;-75
2023/04/07 03:25:26;;;;;;;16.00;8.43;;;9.20;78.80;;;;;;5061721;28;20639;-73
2023/04/07 03:27:56;;;;;;;14.07;8.00;;;9.10;78.80;;;;;;5063256;28;20664;-72
2023/04/07 03:30:25;;;;;;;16.67;8.70;;;9.10;78.80;;;;;;5069240;28;20256;-73
2023/04/07 03:32:53;;;;;;;16.67;8.97;;;9.10;79.10;;;;;;5070529;28;20221;-73
2023/04/07 03:35:22;;;;;;;16.50;8.67;;;9.10;79.20;;;;;;5075796;28;20209;-72
2023/04/07 03:37:50;;;;;;;14.80;8.97;;;9.10;79.40;;;;;;5068390;28;20194;-73
2023/04/07 03:40:18;;;;;;;14.07;9.27;;;9.10;79.90;;;;;;5077935;28;20190;-73
2023/04/07 03:42:47;;;;;;;15.80;8.37;;;9.00;80.20;;;;;;5071599;28;20283;-73
2023/04/07 03:45:17;;;;;;;17.43;8.63;;;9.00;80.40;;;;;;5066135;28;20190;-73
2023/04/07 03:47:45;;;;;;;13.90;8.60;;;9.00;80.90;;;;;;5063266;28;20193;-72
2023/04/07 03:50:13;;;;;;;18.93;9.20;;;8.90;81.50;;;;;;5063118;28;20627;-73
2023/04/07 03:52:42;;;;;;;17.23;9.27;;;8.80;82.10;;;;;;5064487;28;20553;-72
2023/04/07 03:55:10;;;;;;;18.33;9.10;;;8.80;82.70;;;;;;5066483;28;20646;-73
2023/04/07 03:57:38;;;;;;;21.70;9.07;;;8.80;82.60;;;;;;5062864;28;20203;-74
2023/04/07 04:00:09;;;;;;;17.23;9.50;;;8.70;84.00;;;;;;5073197;28;20183;-73
2023/04/07 04:02:38;;;;;;;17.27;9.13;;;8.70;83.30;;;;;;5073645;28;20201;-74
2023/04/07 04:05:07;;;;;;;17.93;9.13;;;8.70;85.10;;;;;;5078442;28;20198;-74
2023/04/07 04:07:36;;;;;;;17.37;10.30;;;8.70;83.80;;;;;;5077843;28;20248;-74
2023/04/07 04:10:04;;;;;;;13.87;9.03;;;8.70;84.50;;;;;;5073572;28;20537;-73
2023/04/07 04:12:33;;;;;;;17.20;9.93;;;8.70;84.50;;;;;;5071116;28;20589;-72
2023/04/07 04:15:01;;;;;;;18.83;9.80;;;8.60;84.80;;;;;;5064565;28;20272;-72
2023/04/07 04:17:29;;;;;;;19.10;10.07;;;8.60;84.80;;;;;;5079093;28;20187;-72
2023/04/07 04:19:59;;;;;;;16.83;10.40;;;8.60;85.10;;;;;;5080034;28;20297;-75
2023/04/07 04:22:27;;;;;;;15.87;9.47;;;8.60;85.40;;;;;;5075118;28;20195;-73
2023/04/07 04:24:56;;;;;;;18.07;9.40;;;8.60;85.20;;;;;;5072910;28;20230;-72
2023/04/07 04:27:24;;;;;;;17.60;10.00;;;8.50;85.10;;;;;;5083244;28;20217;-73
2023/04/07 04:29:52;;;;;;;18.63;9.27;;;8.50;84.80;;;;;;5074485;28;20191;-72
2023/04/07 04:32:21;;;;;;;15.47;10.13;;;8.50;84.80;;;;;;5074010;28;20894;-73
2023/04/07 04:34:49;;;;;;;15.13;9.30;;;8.50;84.90;;;;;;5066397;28;20257;-73
2023/04/07 04:37:19;;;;;;;17.00;9.63;;;8.60;84.90;;;;;;5072025;28;21171;-72
2023/04/07 04:39:47;;;;;;;15.73;9.43;;;8.60;84.90;;;;;;5070017;28;20575;-73
2023/04/07 04:42:16;;;;;;;20.17;9.97;;;8.50;84.50;;;;;;5074631;28;20187;-72
2023/04/07 04:44:44;;;;;;;17.90;9.70;;;8.50;84.40;;;;;;5065778;28;20252;-72
2023/04/07 04:47:13;;;;;;;17.27;9.53;;;8.60;84.30;;;;;;5070052;28;20203;-72
2023/04/07 04:49:41;;;;;;;18.90;8.83;;;8.60;84.40;;;;;;5072094;28;20194;-72
2023/04/07 04:52:10;;;;;;;18.37;9.13;;;8.50;84.40;;;;;;5069103;28;20186;-73
2023/04/07 04:54:39;;;;;;;17.13;9.80;;;8.50;84.30;;;;;;5069769;28;20256;-72
2023/04/07 04:57:08;;;;;;;18.23;10.17;;;8.50;84.30;;;;;;5067378;28;20194;-72
2023/04/07 04:59:36;;;;;;;15.73;9.30;;;8.50;84.40;;;;;;5079132;28;20201;-72
2023/04/07 05:02:04;;;;;;;20.03;9.93;;;8.40;84.10;;;;;;5076514;28;20254;-73
2023/04/07 05:04:33;;;;;;;16.30;9.57;;;8.40;84.20;;;;;;5068478;28;20190;-73
2023/04/07 05:07:01;;;;;;;18.30;9.77;;;8.40;83.90;;;;;;5070162;28;20191;-74
2023/04/07 05:09:30;;;;;;;16.63;10.27;;;8.40;83.80;;;;;;5072238;28;20259;-73
2023/04/07 05:12:00;;;;;;;17.40;9.23;;;8.40;83.80;;;;;;5069886;28;20654;-73
2023/04/07 05:14:29;;;;;;;17.17;8.93;;;8.40;83.90;;;;;;5071583;28;20207;-73
2023/04/07 05:16:57;;;;;;;17.20;8.60;;;8.50;83.90;;;;;;5066169;28;20268;-73
2023/04/07 05:19:26;;;;;;;14.87;8.40;;;8.50;83.90;;;;;;5071449;28;20248;-74
2023/04/07 05:21:54;;;;;;;21.13;10.40;;;8.40;83.90;;;;;;5065707;28;20206;-72
2023/04/07 05:24:22;;;;;;;16.93;9.50;;;8.40;84.00;;;;;;5069814;28;20704;-72
2023/04/07 05:26:50;;;;;;;18.77;9.10;;;8.50;84.00;;;;;;5068329;28;20230;-73
2023/04/07 05:29:20;;;;;;;15.03;8.77;;;8.50;84.00;;;;;;5071536;28;21007;-72
2023/04/07 05:31:49;;;;;;;17.87;9.80;;;8.60;84.10;;;;;;5072096;28;20191;-72
2023/04/07 05:34:17;;;;;;;15.70;9.27;;;8.60;84.10;;;;;;5074902;28;20198;-73
2023/04/07 05:36:45;;;;;;;21.37;9.37;;;8.60;84.20;;;;;;5072050;28;20267;-72
2023/04/07 05:39:14;;;;;;;18.00;9.83;;;8.70;84.20;;;;;;5075172;28;20591;-73
2023/04/07 05:41:42;;;;;;;19.20;10.10;;;8.70;84.10;;;;;;5074929;28;20264;-72
2023/04/07 05:44:10;;;;;;;18.30;8.90;;;8.70;83.90;;;;;;5074063;28;20276;-72
2023/04/07 05:46:40;;;;;;;16.43;10.17;;;8.70;84.70;;;;;;5071291;28;20217;-73
2023/04/07 05:49:09;;;;;;;20.70;8.83;;;8.80;83.90;;;;;;5068988;28;20668;-72
2023/04/07 05:51:47;;;;;;;14.77;8.73;;;8.80;83.80;;;;;;5064886;28;20202;-73
2023/04/07 05:54:16;;;;;;;17.57;9.43;;;8.80;83.60;;;;;;5080960;28;20205;-72
2023/04/07 05:56:44;;;;;;;17.30;9.90;;;8.80;83.60;;;;;;5069175;28;20744;-71
2023/04/07 05:59:13;;;;;;;15.60;9.77;;;8.80;83.90;;;;;;5062612;28;20195;-73
2023/04/07 06:01:43;;;;;;;16.20;9.57;;;8.80;83.60;;;;;;5073826;28;20195;-73
2023/04/07 06:04:11;;;;;;;15.17;9.53;;;8.80;83.50;;;;;;5073286;28;20187;-73
2023/04/07 06:06:40;;;;;;;21.47;9.80;;;8.80;83.80;;;;;;5063740;28;20714;-72
2023/04/07 06:09:08;;;;;;;19.17;10.30;;;8.70;83.50;;;;;;5065884;28;20190;-72
2023/04/07 06:11:37;;;;;;;18.47;10.70;;;8.80;83.90;;;;;;5068698;28;20198;-72
2023/04/07 06:14:05;;;;;;;20.17;11.57;;;8.80;84.20;;;;;;5070801;28;20194;-72
2023/04/07 06:16:33;;;;;;;26.07;12.00;;;8.80;83.60;;;;;;5071093;28;20767;-72
2023/04/07 06:19:03;;;;;;;24.23;10.60;;;8.80;83.60;;;;;;5072090;28;20206;-72
2023/04/07 06:21:31;;;;;;;20.83;10.73;;;8.80;83.40;;;;;;5074744;28;20198;-72
2023/04/07 06:24:00;;;;;;;21.57;10.30;;;8.90;83.40;;;;;;5072078;28;20247;-72
2023/04/07 06:26:28;;;;;;;16.80;11.13;;;9.00;83.80;;;;;;5070686;28;20194;-74
2023/04/07 06:28:57;;;;;;;21.13;9.87;;;9.00;83.90;;;;;;5073220;28;20663;-72
2023/04/07 06:31:26;;;;;;;16.17;10.13;;;9.00;82.90;;;;;;5078502;28;20226;-72
2023/04/07 06:33:54;;;;;;;16.80;9.93;;;9.10;83.00;;;;;;5069109;28;20255;-73
2023/04/07 06:36:24;;;;;;;17.63;10.10;;;9.20;82.70;;;;;;5071552;28;20226;-73
2023/04/07 06:38:52;;;;;;;16.10;9.93;;;9.30;82.40;;;;;;5070626;28;20281;-73
2023/04/07 06:41:21;;;;;;;16.53;9.70;;;9.30;82.10;;;;;;5066807;28;20287;-72
2023/04/07 06:43:51;;;;;;;15.40;9.27;;;9.40;81.90;;;;;;5066967;28;20224;-72
2023/04/07 06:46:19;;;;;;;17.10;9.47;;;9.50;81.20;;;;;;5069101;28;20206;-74
2023/04/07 06:48:48;;;;;;;16.10;9.57;;;9.60;81.20;;;;;;5067863;28;20205;-74
2023/04/07 06:51:16;;;;;;;16.97;9.83;;;9.60;80.70;;;;;;5071774;28;20225;-72
2023/04/07 06:53:47;;;;;;;15.27;9.27;;;9.70;80.30;;;;;;5067866;28;20201;-73
2023/04/07 06:56:16;;;;;;;17.77;9.43;;;9.70;79.80;;;;;;5063950;28;20609;-76
2023/04/07 06:58:44;;;;;;;16.53;9.60;;;9.80;80.30;;;;;;5074340;28;20194;-73
2023/04/07 07:01:12;;;;;;;17.63;8.97;;;9.80;78.80;;;;;;5077183;28;20202;-74
2023/04/07 07:03:41;;;;;;;17.97;9.23;;;9.80;78.70;;;;;;5067661;28;20613;-73
2023/04/07 07:06:09;;;;;;;18.93;9.97;;;9.90;78.30;;;;;;5072083;28;20202;-73
2023/04/07 07:08:38;;;;;;;17.70;10.43;;;9.90;78.60;;;;;;5067476;28;20194;-73
2023/04/07 07:11:07;;;;;;;19.93;11.10;;;10.00;78.50;;;;;;5076188;28;20323;-72
2023/04/07 07:13:41;;;;;;;27.10;14.87;;;10.00;77.90;;;;;;5064205;28;20195;-75
2023/04/07 07:16:11;;;;;;;15.60;10.03;;;10.10;77.80;;;;;;5067290;28;20213;-75
2023/04/07 07:18:43;;;;;;;15.17;9.20;;;10.20;78.00;;;;;;5066411;28;20194;-71
2023/04/07 07:21:11;;;;;;;20.03;9.67;;;10.20;77.10;;;;;;5067183;28;20243;-72
2023/04/07 07:23:40;;;;;;;15.37;8.30;;;10.30;76.50;;;;;;5063464;28;20586;-73
2023/04/07 07:26:09;;;;;;;15.47;8.50;;;10.30;75.60;;;;;;5063467;28;20214;-73
2023/04/07 07:28:38;;;;;;;17.73;9.60;;;10.40;75.50;;;;;;5073983;28;20194;-73
2023/04/07 07:31:11;;;;;;;16.43;8.70;;;10.40;74.80;;;;;;5071901;28;20551;-71
2023/04/07 07:33:42;;;;;;;19.00;9.40;;;10.40;74.10;;;;;;5065970;28;20221;-72
2023/04/07 07:36:11;;;;;;;14.37;8.53;;;10.40;73.90;;;;;;5061198;28;20291;-72
2023/04/07 07:38:40;;;;;;;20.47;10.00;;;10.40;72.90;;;;;;5067149;28;20530;-71
2023/04/07 07:41:09;;;;;;;15.53;9.23;;;10.40;72.20;;;;;;5068755;28;20194;-75
2023/04/07 07:43:38;;;;;;;22.47;9.67;;;10.40;71.60;;;;;;5066186;28;20269;-72
2023/04/07 07:46:06;;;;;;;15.97;8.30;;;10.50;71.20;;;;;;5066023;28;20220;-74
2023/04/07 07:48:35;;;;;;;13.13;8.37;;;10.50;71.10;;;;;;5068955;28;20190;-72
2023/04/07 07:51:03;;;;;;;15.57;9.20;;;10.50;70.70;;;;;;5068516;28;20248;-72
2023/04/07 07:53:32;;;;;;;18.10;9.90;;;10.50;69.70;;;;;;5071453;28;20247;-72
2023/04/07 07:56:00;;;;;;;16.80;9.07;;;10.50;70.20;;;;;;5069883;28;20236;-73
2023/04/07 07:58:30;;;;;;;15.00;9.07;;;10.50;70.20;;;;;;5071728;28;20226;-74
2023/04/07 08:00:58;;;;;;;18.00;9.77;;;10.50;69.80;;;;;;5072786;28;20232;-75
2023/04/07 08:03:27;;;;;;;14.90;9.33;;;10.50;69.90;;;;;;5069343;28;20194;-72
2023/04/07 08:05:55;;;;;;;16.83;9.70;;;10.50;69.40;;;;;;5068146;28;20230;-73
2023/04/07 08:08:24;;;;;;;15.27;8.63;;;10.70;70.20;;;;;;5070242;28;20197;-71
2023/04/07 08:10:52;;;;;;;13.83;8.10;;;10.60;68.80;;;;;;5072438;28;20198;-71
2023/04/07 08:13:20;;;;;;;12.47;6.90;;;10.70;69.20;;;;;;5072193;28;20206;-73
2023/04/07 08:15:50;;;;;;;11.77;7.50;;;10.80;68.30;;;;;;5069372;28;20194;-71
2023/04/07 08:18:18;;;;;;;12.17;7.10;;;10.80;68.20;;;;;;5067438;28;20280;-72
2023/04/07 08:20:47;;;;;;;14.07;7.37;;;10.80;67.00;;;;;;5068761;28;20191;-70
2023/04/07 08:23:15;;;;;;;11.53;7.30;;;10.80;66.40;;;;;;5070135;28;21047;-72
2023/04/07 08:25:43;;;;;;;12.53;7.43;;;10.90;66.60;;;;;;5071325;28;20276;-72
2023/04/07 08:28:12;;;;;;;11.57;7.27;;;10.90;66.80;;;;;;5067726;28;21035;-72
2023/04/07 08:30:40;;;;;;;12.27;7.50;;;11.00;66.80;;;;;;5069489;28;20446;-71
2023/04/07 08:33:10;;;;;;;13.00;7.03;;;11.00;66.80;;;;;;5071674;28;20214;-72
2023/04/07 08:35:38;;;;;;;12.90;7.13;;;11.00;66.80;;;;;;5071521;28;20195;-72
2023/04/07 08:38:07;;;;;;;11.67;6.80;;;11.00;66.30;;;;;;5066576;28;20215;-74
2023/04/07 08:40:36;;;;;;;11.20;6.80;;;11.10;66.10;;;;;;5066856;28;20195;-74
2023/04/07 08:43:08;;;;;;;10.30;6.10;;;11.10;65.30;;;;;;5068693;28;20240;-72
2023/04/07 08:45:39;;;;;;;10.87;6.27;;;11.20;66.10;;;;;;5068350;28;20202;-72
2023/04/07 08:48:17;;;;;;;10.30;5.83;;;11.30;65.10;;;;;;5068816;28;20187;-72
2023/04/07 08:50:46;;;;;;;7.90;4.37;;;11.30;64.80;;;;;;5067270;28;20236;-73
2023/04/07 08:53:18;;;;;;;8.30;5.20;;;11.40;64.10;;;;;;5066383;28;20226;-73
2023/04/07 08:55:47;;;;;;;11.90;5.60;;;11.50;63.40;;;;;;5073515;28;20221;-72
2023/04/07 08:58:16;;;;;;;11.27;6.27;;;11.50;63.40;;;;;;5071705;28;20236;-73
2023/04/07 09:00:47;;;;;;;16.97;6.00;;;11.50;62.80;;;;;;5071932;28;20248;-72
2023/04/07 09:03:18;;;;;;;11.03;6.23;;;11.60;62.70;;;;;;5068204;28;20651;-73
2023/04/07 09:05:47;;;;;;;10.07;6.00;;;11.70;62.30;;;;;;5064620;28;20232;-73
2023/04/07 09:08:15;;;;;;;12.17;6.80;;;11.70;62.60;;;;;;5067854;28;20191;-72
2023/04/07 09:10:44;;;;;;;10.43;5.47;;;11.80;63.10;;;;;;5070193;28;20198;-73
2023/04/07 09:13:12;;;;;;;9.40;5.37;;;11.80;62.50;;;;;;5065808;28;20244;-74
2023/04/07 09:15:41;;;;;;;13.13;5.20;;;11.90;61.40;;;;;;5070055;28;20657;-74
2023/04/07 09:18:09;;;;;;;11.13;5.83;;;11.90;61.90;;;;;;5062967;28;20388;-74
2023/04/07 09:21:00;;;;;;;8.93;5.40;;;12.00;61.60;;;;;;5063704;28;20202;-73
2023/04/07 09:23:30;;;;;;;11.20;6.07;;;12.10;62.00;;;;;;5068931;28;20232;-74
2023/04/07 09:26:00;;;;;;;9.40;5.37;;;12.10;62.70;;;;;;5065361;28;20190;-72
2023/04/07 09:28:45;;;;;;;9.30;6.33;;;12.30;63.90;;;;;;5075353;28;20256;-75
2023/04/07 09:31:13;;;;;;;11.57;6.40;;;12.30;63.10;;;;;;5073060;28;20186;-74
2023/04/07 09:33:42;;;;;;;8.10;5.20;;;12.40;63.20;;;;;;5070636;28;20221;-75
2023/04/07 09:36:12;;;;;;;7.93;5.03;;;12.40;62.70;;;;;;5066937;28;20252;-72
2023/04/07 09:38:41;;;;;;;7.90;4.97;;;12.50;62.10;;;;;;5065789;28;20566;-75
2023/04/07 09:41:11;;;;;;;9.13;5.60;;;12.70;60.90;;;;;;5069453;28;20194;-74
2023/04/07 09:43:41;;;;;;;9.93;5.63;;;12.70;60.40;;;;;;5065502;28;20191;-72
2023/04/07 09:46:11;;;;;;;12.33;5.70;;;12.80;61.50;;;;;;5073034;28;20191;-72
2023/04/07 09:48:40;;;;;;;8.47;5.30;;;12.80;60.20;;;;;;5076467;28;20248;-75
2023/04/07 09:51:11;;;;;;;7.53;4.73;;;12.80;60.80;;;;;;5065184;28;20195;-73
2023/04/07 09:53:45;;;;;;;8.57;5.43;;;12.80;59.70;;;;;;5075536;28;20199;-74
2023/04/07 09:56:15;;;;;;;8.33;5.27;;;12.80;60.50;;;;;;5071344;28;20217;-71
2023/04/07 09:58:46;;;;;;;9.43;5.20;;;12.80;60.90;;;;;;5070644;28;20279;-73
2023/04/07 10:01:16;;;;;;;8.70;5.50;;;12.80;60.40;;;;;;5070248;28;20186;-73
2023/04/07 10:03:46;;;;;;;10.43;4.93;;;12.80;60.80;;;;;;5070004;28;20216;-71
2023/04/07 10:06:17;;;;;;;7.43;3.90;;;12.80;61.10;;;;;;5067728;28;20647;-73
2023/04/07 10:08:45;;;;;;;7.43;4.43;;;12.80;59.10;;;;;;5071036;28;20194;-73
2023/04/07 10:11:16;;;;;;;9.87;4.63;;;12.80;59.10;;;;;;5072995;28;20682;-74
2023/04/07 10:13:45;;;;;;;9.33;5.60;;;12.80;59.70;;;;;;5072350;28;20190;-73
2023/04/07 10:16:14;;;;;;;8.03;5.03;;;12.80;59.70;;;;;;5071138;28;20532;-74
2023/04/07 10:18:43;;;;;;;7.27;4.80;;;12.80;59.30;;;;;;5069311;28;20692;-72
2023/04/07 10:21:14;;;;;;;11.03;5.73;;;12.80;59.70;;;;;;5071366;28;20611;-72
2023/04/07 10:23:56;;;;;;;8.60;5.60;;;12.80;60.60;;;;;;5071219;28;20195;-73
2023/04/07 10:26:29;;;;;;;7.77;4.60;;;12.80;60.10;;;;;;5077293;28;20535;-73
2023/04/07 10:29:02;;;;;;;8.70;5.17;;;12.80;60.00;;;;;;5065946;28;20191;-73
2023/04/07 10:31:31;;;;;;;8.47;5.30;;;12.80;60.10;;;;;;5066596;28;20240;-72
2023/04/07 10:34:01;;;;;;;11.10;5.40;;;12.90;60.80;;;;;;5063122;28;20205;-72
2023/04/07 10:36:32;;;;;;;8.53;5.50;;;13.00;60.50;;;;;;5067215;28;20198;-72
2023/04/07 10:39:21;;;;;;;8.97;5.90;;;12.90;60.10;;;;;;5063155;28;20245;-72
2023/04/07 10:41:50;;;;;;;9.23;5.73;;;12.90;60.90;;;;;;5069254;28;20194;-72
2023/04/07 10:44:49;;;;;;;10.80;6.07;;;13.00;61.40;;;;;;5067812;28;20671;-71
2023/04/07 10:47:18;;;;;;;10.73;6.37;;;13.00;61.10;;;;;;5062676;28;20190;-73
2023/04/07 10:50:21;;;;;;;7.27;4.93;;;13.00;60.80;;;;;;5065528;28;20209;-72
2023/04/07 10:53:06;;;;;;;8.30;5.47;;;13.00;60.20;;;;;;5066574;28;20639;-72
2023/04/07 10:55:37;;;;;;;10.30;5.47;;;13.00;59.20;;;;;;5066403;28;20194;-72
2023/04/07 10:58:22;;;;;;;9.63;5.20;;;13.00;59.60;;;;;;5067824;28;20263;-73
2023/04/07 11:01:17;;;;;;;14.03;5.63;;;13.00;59.30;;;;;;5067209;28;20631;-72
2023/04/07 11:03:59;;;;;;;8.13;5.40;;;13.00;59.90;;;;;;5068241;28;20195;-73
2023/04/07 11:06:28;;;;;;;7.90;4.60;;;13.00;59.50;;;;;;5059813;28;20256;-73
2023/04/07 11:08:57;;;;;;;8.30;5.47;;;13.00;59.30;;;;;;5068166;28;20202;-72
2023/04/07 11:11:41;;;;;;;7.03;4.70;;;13.00;59.90;;;;;;5069729;28;20186;-73
2023/04/07 11:14:10;;;;;;;8.60;5.07;;;13.10;59.90;;;;;;5068106;28;20191;-72
2023/04/07 11:16:41;;;;;;;8.50;5.13;;;13.00;60.10;;;;;;5070247;28;20563;-72
2023/04/07 11:19:10;;;;;;;10.00;5.17;;;13.10;60.00;;;;;;5069150;28;20213;-73
2023/04/07 11:21:39;;;;;;;11.10;5.23;;;13.10;59.70;;;;;;5068799;28;20202;-73
2023/04/07 11:24:07;;;;;;;12.30;5.43;;;13.10;60.30;;;;;;5064992;28;20222;-73
2023/04/07 11:26:42;;;;;;;7.40;4.90;;;13.20;60.50;;;;;;5062613;28;20593;-72
2023/04/07 11:29:12;;;;;;;7.73;4.97;;;13.30;59.80;;;;;;5073552;28;20216;-72
2023/04/07 11:31:40;;;;;;;8.50;5.43;;;13.50;59.50;;;;;;5071667;28;20267;-73
2023/04/07 11:34:09;;;;;;;9.00;5.60;;;13.50;59.40;;;;;;5071673;28;20195;-73
2023/04/07 11:36:39;;;;;;;9.00;5.43;;;13.60;58.90;;;;;;5073032;28;20190;-74
2023/04/07 11:39:20;;;;;;;7.47;4.30;;;13.70;58.80;;;;;;5071158;28;20214;-73
2023/04/07 11:41:50;;;;;;;7.13;4.37;;;13.70;58.30;;;;;;5071469;28;20190;-73
2023/04/07 11:44:19;;;;;;;6.80;4.47;;;13.70;57.70;;;;;;5071369;28;20183;-73
2023/04/07 11:46:57;;;;;;;7.17;4.60;;;13.70;58.10;;;;;;5071125;28;20187;-71
2023/04/07 11:49:27;;;;;;;8.03;4.80;;;13.60;58.30;;;;;;5071523;28;20186;-72
2023/04/07 11:52:01;;;;;;;8.43;5.03;;;13.60;58.40;;;;;;5070067;28;20593;-73
2023/04/07 11:54:40;;;;;;;7.27;5.10;;;13.60;58.50;;;;;;5071735;28;20619;-73
2023/04/07 11:57:11;;;;;;;8.50;5.60;;;13.70;59.20;;;;;;5072767;28;20186;-72
2023/04/07 11:59:41;;;;;;;7.30;4.53;;;13.70;59.30;;;;;;5069381;28;20215;-73
2023/04/07 12:02:09;;;;;;;7.63;4.83;;;13.70;58.90;;;;;;5061002;28;20255;-73
2023/04/07 12:04:39;;;;;;;8.57;4.83;;;13.70;58.80;;;;;;5067049;28;20209;-73
2023/04/07 12:07:09;;;;;;;8.87;5.40;;;13.80;59.00;;;;;;5071531;28;20198;-71
2023/04/07 12:09:38;;;;;;;7.20;4.77;;;13.80;58.60;;;;;;5068643;28;20207;-72
2023/04/07 12:12:09;;;;;;;8.20;4.60;;;13.70;58.60;;;;;;5070556;28;20260;-73
2023/04/07 12:14:39;;;;;;;7.23;5.03;;;13.80;58.50;;;;;;5069613;28;20244;-72
2023/04/07 12:17:08;;;;;;;12.23;5.83;;;13.70;58.00;;;;;;5070768;28;20191;-72
2023/04/07 12:19:38;;;;;;;8.37;5.60;;;13.70;58.30;;;;;;5071405;28;20306;-73
2023/04/07 12:22:07;;;;;;;11.50;5.97;;;13.70;57.50;;;;;;5070732;28;20190;-73
2023/04/07 12:24:35;;;;;;;9.60;6.00;;;13.70;58.00;;;;;;5071530;28;20187;-72
2023/04/07 12:27:03;;;;;;;9.07;5.77;;;13.80;58.40;;;;;;5070926;28;20590;-73
2023/04/07 12:29:32;;;;;;;9.43;6.03;;;13.70;57.80;;;;;;5072925;28;20243;-72
2023/04/07 12:32:01;;;;;;;11.40;6.37;;;13.80;58.30;;;;;;5070846;28;20264;-72
2023/04/07 12:34:30;;;;;;;10.20;6.30;;;13.70;58.40;;;;;;5066537;28;20712;-73
2023/04/07 12:36:58;;;;;;;9.80;6.10;;;13.80;59.00;;;;;;5065620;28;20615;-72
2023/04/07 12:39:27;;;;;;;9.10;6.07;;;13.70;58.60;;;;;;5063148;28;20242;-72
2023/04/07 12:41:57;;;;;;;10.97;6.47;;;13.70;59.50;;;;;;5066936;28;20194;-73
2023/04/07 12:44:25;;;;;;;10.60;5.33;;;13.60;59.50;;;;;;5069384;28;20191;-72
2023/04/07 12:46:53;;;;;;;8.33;5.63;;;13.70;59.80;;;;;;5071636;28;20187;-73
2023/04/07 12:49:23;;;;;;;10.80;7.00;;;13.60;59.10;;;;;;5065205;28;20194;-72
2023/04/07 12:51:51;;;;;;;9.13;6.33;;;13.60;59.40;;;;;;5068881;28;20194;-75
2023/04/07 12:54:20;;;;;;;11.67;6.70;;;13.60;59.50;;;;;;5070177;28;20658;-73
2023/04/07 12:56:48;;;;;;;10.57;6.80;;;13.50;59.50;;;;;;5072026;28;20647;-73
2023/04/07 12:59:16;;;;;;;12.40;7.13;;;13.50;59.40;;;;;;5064886;28;20294;-73